createdAt,value
2017-12-28T00:01:40.362Z,3.30
2017-12-28T00:04:07.809Z,3.30
2017-12-28T00:06:35.254Z,3.30
2017-12-28T00:09:02.709Z,3.30
2017-12-28T00:11:30.879Z,3.40
2017-12-28T00:13:58.341Z,3.30
2017-12-28T00:16:25.811Z,3.30
2017-12-28T00:18:53.250Z,3.30
2017-12-28T00:21:20.702Z,3.20
2017-12-28T00:23:48.146Z,3.20
2017-12-28T00:26:15.598Z,3.20
2017-12-28T00:28:43.054Z,3.10
2017-12-28T00:31:10.501Z,3.10
2017-12-28T00:33:38.722Z,3.10
2017-12-28T00:36:06.131Z,3.10
2017-12-28T00:38:33.556Z,3.10
2017-12-28T00:41:00.967Z,3.10
2017-12-28T00:43:28.493Z,3.10
2017-12-28T00:45:55.916Z,3.10
2017-12-28T00:48:23.331Z,3.10
2017-12-28T00:50:50.787Z,3.10
2017-12-28T00:53:18.200Z,3.10
2017-12-28T00:55:46.389Z,3.10
2017-12-28T00:58:13.799Z,3.10
2017-12-28T01:00:41.979Z,3.10
2017-12-28T01:03:09.392Z,3.10
2017-12-28T01:05:37.577Z,3.10
2017-12-28T01:08:05.004Z,3.10
2017-12-28T01:10:32.500Z,3.10
2017-12-28T01:12:59.923Z,3.10
2017-12-28T01:15:27.339Z,3.20
2017-12-28T01:17:54.763Z,3.20
2017-12-28T01:20:22.948Z,3.20
2017-12-28T01:22:50.371Z,3.20
2017-12-28T01:25:17.791Z,3.20
2017-12-28T01:27:45.976Z,3.20
2017-12-28T01:30:13.392Z,3.20
2017-12-28T01:32:41.580Z,3.20
2017-12-28T01:35:08.991Z,3.20
2017-12-28T01:37:37.187Z,3.20
2017-12-28T01:40:04.611Z,3.20
2017-12-28T01:42:32.034Z,3.20
2017-12-28T01:45:00.215Z,3.30
2017-12-28T01:47:27.628Z,3.20
2017-12-28T01:49:55.807Z,3.30
2017-12-28T01:52:23.222Z,3.30
2017-12-28T01:54:50.652Z,3.30
2017-12-28T01:57:18.068Z,3.30
2017-12-28T01:59:45.482Z,3.20
2017-12-28T02:02:12.907Z,3.20
2017-12-28T02:04:41.124Z,3.20
2017-12-28T02:07:08.561Z,3.20
2017-12-28T02:09:35.971Z,3.10
2017-12-28T02:12:03.396Z,3.10
2017-12-28T02:14:31.576Z,3.10
2017-12-28T02:16:59.060Z,3.10
2017-12-28T02:19:26.479Z,3.10
2017-12-28T02:21:53.899Z,3.10
2017-12-28T02:24:21.320Z,3.10
2017-12-28T02:26:48.794Z,3.10
2017-12-28T02:29:16.166Z,3.10
2017-12-28T02:31:43.576Z,3.10
2017-12-28T02:34:10.996Z,3.20
2017-12-28T02:36:38.423Z,3.10
2017-12-28T02:39:06.611Z,3.10
2017-12-28T02:41:34.032Z,3.10
2017-12-28T02:44:01.448Z,3.20
2017-12-28T02:46:29.651Z,3.10
2017-12-28T02:48:57.067Z,3.10
2017-12-28T02:51:24.499Z,3.20
2017-12-28T02:53:52.701Z,3.20
2017-12-28T02:56:20.163Z,3.20
2017-12-28T02:58:47.585Z,3.10
2017-12-28T03:01:15.017Z,3.10
2017-12-28T03:03:42.428Z,3.10
2017-12-28T03:06:10.616Z,3.00
2017-12-28T03:08:38.035Z,3.00
2017-12-28T03:11:05.456Z,3.00
2017-12-28T03:13:33.676Z,2.80
2017-12-28T03:16:01.071Z,2.80
2017-12-28T03:18:29.261Z,2.70
2017-12-28T03:20:56.691Z,2.70
2017-12-28T03:23:24.102Z,2.60
2017-12-28T03:25:52.279Z,2.60
2017-12-28T03:28:19.736Z,2.60
2017-12-28T03:30:47.145Z,2.60
2017-12-28T03:33:15.323Z,2.50
2017-12-28T03:35:42.756Z,2.50
2017-12-28T03:38:10.963Z,2.50
2017-12-28T03:40:38.402Z,2.50
2017-12-28T03:43:05.815Z,2.50
2017-12-28T03:45:33.244Z,2.50
2017-12-28T03:48:00.671Z,2.50
2017-12-28T03:50:28.880Z,2.40
2017-12-28T03:52:56.304Z,2.40
2017-12-28T03:55:23.723Z,2.40
2017-12-28T03:57:51.904Z,2.40
2017-12-28T04:00:19.325Z,2.40
2017-12-28T04:02:47.499Z,2.40
2017-12-28T04:05:14.927Z,2.40
2017-12-28T04:07:43.128Z,2.40
2017-12-28T04:10:10.555Z,2.40
2017-12-28T04:12:37.984Z,2.30
2017-12-28T04:15:05.386Z,2.30
2017-12-28T04:17:33.571Z,2.20
2017-12-28T04:20:01.004Z,2.20
2017-12-28T04:22:29.193Z,2.20
2017-12-28T04:24:56.602Z,2.10
2017-12-28T04:27:24.803Z,2.20
2017-12-28T04:29:52.735Z,2.20
2017-12-28T04:32:20.147Z,2.20
2017-12-28T04:34:48.334Z,2.20
2017-12-28T04:37:15.763Z,2.20
2017-12-28T04:39:43.209Z,2.20
2017-12-28T04:42:10.619Z,2.20
2017-12-28T04:44:38.034Z,2.20
2017-12-28T04:47:05.460Z,2.20
2017-12-28T04:49:32.887Z,2.20
2017-12-28T04:52:00.291Z,2.20
2017-12-28T04:54:28.473Z,2.10
2017-12-28T04:56:55.892Z,2.10
2017-12-28T04:59:24.078Z,2.00
2017-12-28T05:01:51.495Z,2.00
2017-12-28T05:04:19.671Z,1.90
2017-12-28T05:06:47.100Z,1.90
2017-12-28T05:09:15.301Z,1.90
2017-12-28T05:11:42.715Z,1.90
2017-12-28T05:14:10.135Z,1.90
2017-12-28T05:16:38.347Z,1.90
2017-12-28T05:19:05.739Z,1.90
2017-12-28T05:21:33.935Z,1.90
2017-12-28T05:24:01.346Z,1.90
2017-12-28T05:26:29.527Z,1.90
2017-12-28T05:28:56.940Z,1.90
2017-12-28T05:31:25.120Z,1.90
2017-12-28T05:33:52.535Z,1.90
2017-12-28T05:36:20.719Z,1.90
2017-12-28T05:38:48.139Z,1.90
2017-12-28T05:41:16.319Z,1.90
2017-12-28T05:43:43.743Z,1.80
2017-12-28T05:46:11.930Z,1.80
2017-12-28T05:48:39.342Z,1.80
2017-12-28T05:51:07.524Z,1.80
2017-12-28T05:53:34.935Z,1.70
2017-12-28T05:56:03.147Z,1.70
2017-12-28T05:58:30.557Z,1.70
2017-12-28T06:00:57.971Z,1.60
2017-12-28T06:03:26.167Z,1.50
2017-12-28T06:05:53.584Z,1.50
2017-12-28T06:08:21.781Z,1.40
2017-12-28T06:10:49.180Z,1.40
2017-12-28T06:13:17.503Z,1.30
2017-12-28T06:15:44.925Z,1.20
2017-12-28T06:18:12.347Z,1.20
2017-12-28T06:20:39.765Z,1.10
2017-12-28T06:23:07.955Z,0.90
2017-12-28T06:25:35.360Z,0.90
2017-12-28T06:28:03.547Z,0.70
2017-12-28T06:30:30.966Z,0.70
2017-12-28T06:32:59.156Z,0.70
2017-12-28T06:35:26.580Z,0.70
2017-12-28T06:37:53.999Z,0.70
2017-12-28T06:40:21.412Z,0.70
2017-12-28T06:42:48.843Z,0.70
2017-12-28T06:45:16.260Z,0.70
2017-12-28T06:47:43.680Z,0.70
2017-12-28T06:50:11.860Z,0.80
2017-12-28T06:52:39.280Z,0.80
2017-12-28T06:55:06.715Z,0.90
2017-12-28T06:57:34.891Z,0.90
2017-12-28T07:00:02.311Z,0.90
2017-12-28T07:02:30.503Z,0.90
2017-12-28T07:04:57.939Z,0.90
2017-12-28T07:07:25.341Z,0.90
2017-12-28T07:09:53.527Z,0.90
2017-12-28T07:12:20.939Z,0.90
2017-12-28T07:14:48.351Z,0.90
2017-12-28T07:17:15.875Z,0.90
2017-12-28T07:19:43.307Z,0.90
2017-12-28T07:22:10.719Z,0.90
2017-12-28T07:24:38.908Z,1.00
2017-12-28T07:27:06.371Z,0.90
2017-12-28T07:29:33.792Z,1.00
2017-12-28T07:32:01.209Z,1.00
2017-12-28T07:34:29.399Z,1.10
2017-12-28T07:36:56.811Z,1.00
2017-12-28T07:39:24.231Z,1.10
2017-12-28T07:41:52.420Z,1.20
2017-12-28T07:44:19.843Z,1.20
2017-12-28T07:46:48.032Z,1.30
2017-12-28T07:49:15.495Z,1.30
2017-12-28T07:51:42.915Z,1.30
2017-12-28T07:54:10.339Z,1.30
2017-12-28T07:56:37.755Z,1.30
2017-12-28T07:59:06.495Z,1.40
2017-12-28T08:01:33.907Z,1.30
2017-12-28T08:04:01.328Z,1.40
2017-12-28T08:06:29.515Z,1.40
2017-12-28T08:08:56.927Z,1.40
2017-12-28T08:11:25.103Z,1.50
2017-12-28T08:13:52.529Z,1.50
2017-12-28T08:16:20.716Z,1.50
2017-12-28T08:18:48.136Z,1.50
2017-12-28T08:21:15.548Z,1.60
2017-12-28T08:23:42.985Z,1.50
2017-12-28T08:26:10.407Z,1.50
2017-12-28T08:28:37.827Z,1.60
2017-12-28T08:31:05.254Z,1.60
2017-12-28T08:33:32.668Z,1.60
2017-12-28T08:36:00.863Z,1.50
2017-12-28T08:38:28.296Z,1.60
2017-12-28T08:40:55.711Z,1.60
2017-12-28T08:43:23.900Z,1.60
2017-12-28T08:45:51.316Z,1.60
2017-12-28T08:48:18.724Z,1.60
2017-12-28T08:50:46.135Z,1.70
2017-12-28T08:53:13.556Z,1.60
2017-12-28T08:55:40.976Z,1.70
2017-12-28T08:58:09.161Z,1.70
2017-12-28T09:00:36.579Z,1.70
2017-12-28T09:03:04.763Z,1.80
2017-12-28T09:05:32.184Z,1.80
2017-12-28T09:07:59.603Z,1.80
2017-12-28T09:10:27.017Z,1.80
2017-12-28T09:12:54.431Z,1.80
2017-12-28T09:15:21.859Z,1.80
2017-12-28T09:17:49.329Z,1.90
2017-12-28T09:20:16.739Z,1.90
2017-12-28T09:22:44.236Z,2.00
2017-12-28T09:25:11.644Z,2.00
2017-12-28T09:27:39.055Z,2.10
2017-12-28T09:30:06.540Z,2.20
2017-12-28T09:32:33.951Z,2.10
2017-12-28T09:35:01.363Z,2.20
2017-12-28T09:37:29.539Z,2.20
2017-12-28T09:39:56.967Z,2.20
2017-12-28T09:42:25.199Z,2.20
2017-12-28T09:44:52.611Z,2.20
2017-12-28T09:47:20.027Z,2.20
2017-12-28T09:49:47.443Z,2.20
2017-12-28T09:52:14.887Z,2.20
2017-12-28T09:54:43.081Z,2.20
2017-12-28T09:57:10.496Z,2.20
2017-12-28T09:59:38.671Z,2.20
2017-12-28T10:02:06.088Z,2.20
2017-12-28T10:04:34.286Z,2.20
2017-12-28T10:07:01.703Z,2.20
2017-12-28T10:09:29.140Z,2.20
2017-12-28T10:11:57.324Z,2.20
2017-12-28T10:14:24.739Z,2.20
2017-12-28T10:16:52.927Z,2.30
2017-12-28T10:19:20.347Z,2.20
2017-12-28T10:21:47.768Z,2.20
2017-12-28T10:24:15.952Z,2.20
2017-12-28T10:26:43.369Z,2.20
2017-12-28T10:29:11.557Z,2.20
2017-12-28T10:31:38.983Z,2.20
2017-12-28T10:34:07.172Z,2.20
2017-12-28T10:36:34.596Z,2.10
2017-12-28T10:39:02.025Z,2.20
2017-12-28T10:41:30.200Z,2.20
2017-12-28T10:43:57.619Z,2.20
2017-12-28T10:46:25.799Z,2.20
2017-12-28T10:48:53.244Z,2.20
2017-12-28T10:51:21.431Z,2.30
2017-12-28T10:53:48.852Z,2.20
2017-12-28T10:56:16.263Z,2.30
2017-12-28T10:58:44.455Z,2.30
2017-12-28T11:01:11.867Z,2.20
2017-12-28T11:03:40.052Z,2.40
2017-12-28T11:06:07.473Z,2.40
2017-12-28T11:08:34.892Z,2.40
2017-12-28T11:11:02.312Z,2.40
2017-12-28T11:13:29.743Z,2.40
2017-12-28T11:15:57.171Z,2.30
2017-12-28T11:18:24.620Z,2.30
2017-12-28T11:20:52.027Z,2.30
2017-12-28T11:23:19.479Z,2.30
2017-12-28T11:25:46.898Z,2.30
2017-12-28T11:28:15.089Z,2.50
2017-12-28T11:30:42.509Z,2.50
2017-12-28T11:33:09.994Z,2.60
2017-12-28T11:35:37.412Z,2.70
2017-12-28T11:38:04.867Z,2.70
2017-12-28T11:40:32.259Z,2.60
2017-12-28T11:43:00.447Z,2.70
2017-12-28T11:45:27.883Z,2.60
2017-12-28T11:47:55.300Z,2.60
2017-12-28T11:50:23.479Z,2.60
2017-12-28T11:52:56.599Z,2.50
2017-12-28T11:55:24.016Z,2.50
2017-12-28T11:57:56.223Z,2.40
2017-12-28T12:00:27.282Z,2.30
2017-12-28T12:03:00.463Z,2.30
2017-12-28T12:05:27.876Z,2.30
2017-12-28T12:07:55.294Z,2.40
2017-12-28T12:10:22.714Z,2.40
2017-12-28T12:12:50.136Z,2.40
2017-12-28T12:15:17.550Z,2.40
2017-12-28T12:17:44.970Z,2.40
2017-12-28T12:20:13.156Z,2.30
2017-12-28T12:22:40.563Z,2.30
2017-12-28T12:25:08.752Z,2.30
2017-12-28T12:27:36.171Z,2.30
2017-12-28T12:30:04.355Z,2.40
2017-12-28T12:32:31.781Z,2.40
2017-12-28T12:34:59.964Z,2.70
2017-12-28T12:37:27.438Z,2.60
2017-12-28T12:39:54.856Z,2.50
2017-12-28T12:42:22.271Z,2.30
2017-12-28T12:44:50.491Z,2.30
2017-12-28T12:47:17.906Z,2.40
2017-12-28T12:49:45.320Z,2.40
2017-12-28T12:52:12.743Z,2.40
2017-12-28T12:54:40.931Z,2.40
2017-12-28T12:57:08.380Z,2.40
2017-12-28T12:59:36.536Z,2.20
2017-12-28T13:02:03.951Z,2.20
2017-12-28T13:04:32.131Z,2.20
2017-12-28T13:06:59.539Z,2.20
2017-12-28T13:09:27.740Z,2.20
2017-12-28T13:11:55.158Z,2.20
2017-12-28T13:14:22.583Z,2.20
2017-12-28T13:16:50.759Z,2.20
2017-12-28T13:19:18.233Z,2.20
2017-12-28T13:21:45.656Z,2.30
2017-12-28T13:24:13.067Z,2.40
2017-12-28T13:26:41.251Z,2.30
2017-12-28T13:29:08.668Z,2.20
2017-12-28T13:31:36.851Z,2.10
2017-12-28T13:34:04.263Z,2.10
2017-12-28T13:36:31.683Z,2.10
2017-12-28T13:38:59.127Z,2.00
2017-12-28T13:41:26.539Z,1.90
2017-12-28T13:43:53.963Z,1.90
2017-12-28T13:46:21.379Z,1.80
2017-12-28T13:48:49.596Z,1.70
2017-12-28T13:51:17.016Z,1.70
2017-12-28T13:53:44.420Z,1.70
2017-12-28T13:56:12.599Z,1.70
2017-12-28T13:58:40.018Z,1.70
2017-12-28T14:01:08.205Z,1.70
2017-12-28T14:03:35.631Z,1.60
2017-12-28T14:06:03.800Z,1.60
2017-12-28T14:08:31.224Z,1.50
2017-12-28T14:10:59.403Z,1.50
2017-12-28T14:13:26.820Z,1.50
2017-12-28T14:15:54.243Z,1.50
2017-12-28T14:18:22.428Z,1.50
2017-12-28T14:20:49.843Z,1.50
2017-12-28T14:23:18.032Z,1.50
2017-12-28T14:25:45.448Z,1.50
2017-12-28T14:28:13.632Z,1.40
2017-12-28T14:30:41.052Z,1.40
2017-12-28T14:33:09.263Z,1.40
2017-12-28T14:35:36.684Z,1.40
2017-12-28T14:38:04.104Z,1.30
2017-12-28T14:40:31.538Z,1.30
2017-12-28T14:42:59.721Z,1.30
2017-12-28T14:45:27.140Z,1.30
2017-12-28T14:47:55.319Z,1.20
2017-12-28T14:50:22.787Z,1.30
2017-12-28T14:52:50.247Z,1.20
2017-12-28T14:55:17.660Z,1.20
2017-12-28T14:57:45.075Z,1.10
2017-12-28T15:00:12.513Z,1.10
2017-12-28T15:02:40.708Z,1.00
2017-12-28T15:05:08.136Z,1.00
2017-12-28T15:07:35.547Z,1.00
2017-12-28T15:10:03.744Z,1.00
2017-12-28T15:12:31.164Z,1.00
2017-12-28T15:14:58.575Z,1.00
2017-12-28T15:17:26.764Z,1.30
2017-12-28T15:19:54.174Z,1.30
2017-12-28T15:22:22.356Z,1.30
2017-12-28T15:24:49.771Z,1.30
2017-12-28T15:27:17.188Z,1.30
2017-12-28T15:29:44.604Z,1.30
2017-12-28T15:32:12.016Z,1.30
2017-12-28T15:34:40.195Z,1.30
2017-12-28T15:37:07.665Z,1.20
2017-12-28T15:39:35.106Z,1.30
2017-12-28T15:42:02.523Z,1.30
2017-12-28T15:44:29.943Z,1.30
2017-12-28T15:46:57.368Z,1.30
2017-12-28T15:49:25.562Z,1.30
2017-12-28T15:51:52.983Z,1.30
2017-12-28T15:54:20.403Z,1.30
2017-12-28T15:56:47.822Z,1.30
2017-12-28T15:59:15.239Z,1.30
2017-12-28T16:01:42.702Z,1.30
2017-12-28T16:04:10.112Z,1.30
2017-12-28T16:06:37.559Z,1.30
2017-12-28T16:09:04.979Z,1.30
2017-12-28T16:11:33.188Z,1.30
2017-12-28T16:14:00.649Z,1.30
2017-12-28T16:16:28.094Z,1.30
2017-12-28T16:18:55.558Z,1.30
2017-12-28T16:21:23.727Z,1.20
2017-12-28T16:23:51.199Z,1.20
2017-12-28T16:26:18.649Z,1.20
2017-12-28T16:28:46.081Z,1.20
2017-12-28T16:31:13.545Z,1.20
2017-12-28T16:33:40.943Z,1.20
2017-12-28T16:36:08.379Z,1.10
2017-12-28T16:38:35.865Z,1.10
2017-12-28T16:41:03.275Z,1.00
2017-12-28T16:43:30.712Z,1.00
2017-12-28T16:45:58.167Z,1.00
2017-12-28T16:48:25.608Z,0.90
2017-12-28T16:50:53.003Z,0.90
2017-12-28T16:53:21.265Z,0.80
2017-12-28T16:55:48.657Z,0.80
2017-12-28T16:58:16.083Z,0.80
2017-12-28T17:00:43.503Z,0.80
2017-12-28T17:03:10.916Z,0.80
2017-12-28T17:05:38.456Z,0.70
2017-12-28T17:08:05.901Z,0.80
2017-12-28T17:10:33.323Z,0.70
2017-12-28T17:13:00.744Z,0.70
2017-12-28T17:15:28.212Z,0.70
2017-12-28T17:17:55.628Z,0.70
2017-12-28T17:20:23.055Z,0.60
2017-12-28T17:22:50.468Z,0.60
2017-12-28T17:25:18.653Z,0.50
2017-12-28T17:27:46.077Z,0.50
2017-12-28T17:30:14.302Z,0.50
2017-12-28T17:32:41.754Z,0.40
2017-12-28T17:35:09.217Z,0.40
2017-12-28T17:37:37.392Z,0.50
2017-12-28T17:40:04.858Z,0.50
2017-12-28T17:42:32.259Z,0.80
2017-12-28T17:45:00.497Z,0.70
2017-12-28T17:47:27.955Z,0.70
2017-12-28T17:49:56.127Z,0.50
2017-12-28T17:52:23.590Z,0.50
2017-12-28T17:54:51.043Z,0.50
2017-12-28T17:57:18.431Z,0.50
2017-12-28T17:59:46.666Z,0.40
2017-12-28T18:02:14.120Z,0.40
2017-12-28T18:04:41.525Z,0.40
2017-12-28T18:07:08.966Z,0.30
2017-12-28T18:09:36.411Z,0.30
2017-12-28T18:12:03.855Z,0.30
2017-12-28T18:14:31.306Z,0.40
2017-12-28T18:16:58.767Z,0.40
2017-12-28T18:19:26.172Z,0.30
2017-12-28T18:21:53.666Z,0.30
2017-12-28T18:24:21.122Z,0.20
2017-12-28T18:26:49.335Z,0.20
2017-12-28T18:29:16.785Z,0.10
2017-12-28T18:31:44.251Z,0.20
2017-12-28T18:34:11.663Z,0.10
2017-12-28T18:36:39.127Z,0.10
2017-12-28T18:39:06.585Z,0.00
2017-12-28T18:41:34.760Z,0.00
2017-12-28T18:44:02.239Z,0.00
2017-12-28T18:46:29.722Z,0.00
2017-12-28T18:48:57.120Z,0.00
2017-12-28T18:51:24.548Z,-0.10
2017-12-28T18:53:52.025Z,-0.10
2017-12-28T18:56:19.431Z,-0.10
2017-12-28T18:58:46.899Z,-0.10
2017-12-28T19:01:14.357Z,-0.10
2017-12-28T19:03:41.827Z,-0.10
2017-12-28T19:06:10.067Z,-0.20
2017-12-28T19:08:37.543Z,-0.20
2017-12-28T19:11:05.751Z,-0.10
2017-12-28T19:13:33.225Z,-0.10
2017-12-28T19:16:00.692Z,-0.10
2017-12-28T19:18:28.143Z,0.00
2017-12-28T19:20:55.613Z,-0.10
2017-12-28T19:23:23.024Z,-0.10
2017-12-28T19:25:50.451Z,-0.10
2017-12-28T19:28:17.931Z,-0.10
2017-12-28T19:30:45.347Z,-0.10
2017-12-28T19:33:12.819Z,-0.10
2017-12-28T19:35:40.273Z,-0.10
2017-12-28T19:38:07.739Z,-0.10
2017-12-28T19:40:35.198Z,-0.20
2017-12-28T19:43:03.455Z,-0.30
2017-12-28T19:45:31.640Z,-0.30
2017-12-28T19:47:59.115Z,-0.30
2017-12-28T19:50:26.535Z,-0.30
2017-12-28T19:52:54.011Z,-0.30
2017-12-28T19:55:21.470Z,-0.30
2017-12-28T19:57:48.935Z,-0.30
2017-12-28T20:00:17.158Z,-0.30
2017-12-28T20:02:44.609Z,-0.30
2017-12-28T20:05:13.590Z,-0.30
2017-12-28T20:07:41.056Z,-0.30
2017-12-28T20:10:09.300Z,-0.30
2017-12-28T20:12:37.531Z,-0.40
2017-12-28T20:15:04.989Z,-0.40
2017-12-28T20:17:32.450Z,-0.40
2017-12-28T20:20:00.686Z,-0.30
2017-12-28T20:22:28.166Z,-0.30
2017-12-28T20:24:55.571Z,-0.30
2017-12-28T20:27:23.830Z,-0.40
2017-12-28T20:29:51.283Z,-0.40
2017-12-28T20:32:18.729Z,-0.40
2017-12-28T20:34:46.963Z,-0.50
2017-12-28T20:37:14.435Z,-0.50
2017-12-28T20:39:41.891Z,-0.50
2017-12-28T20:42:09.351Z,-0.50
2017-12-28T20:44:36.819Z,-0.50
2017-12-28T20:47:04.276Z,-0.50
2017-12-28T20:49:31.742Z,-0.50
2017-12-28T20:51:59.963Z,-0.60
2017-12-28T20:54:27.418Z,-0.60
2017-12-28T20:56:54.898Z,-0.60
2017-12-28T20:59:23.128Z,-0.70
2017-12-28T21:01:51.355Z,-0.70
2017-12-28T21:04:18.850Z,-0.80
2017-12-28T21:06:47.083Z,-0.80
2017-12-28T21:09:14.543Z,-0.80
2017-12-28T21:11:41.999Z,-0.80
2017-12-28T21:14:10.218Z,-0.70
2017-12-28T21:16:37.686Z,-0.80
2017-12-28T21:19:05.134Z,-0.60
2017-12-28T21:21:32.590Z,-0.60
2017-12-28T21:24:00.823Z,-0.90
2017-12-28T21:26:28.278Z,-0.90
2017-12-28T21:28:55.753Z,-1.00
2017-12-28T21:31:23.230Z,-1.00
2017-12-28T21:33:50.690Z,-1.00
2017-12-28T21:36:18.155Z,-1.10
2017-12-28T21:38:46.392Z,-1.20
2017-12-28T21:41:13.843Z,-1.30
2017-12-28T21:43:41.294Z,-1.30
2017-12-28T21:46:09.520Z,-1.40
2017-12-28T21:48:36.978Z,-1.40
2017-12-28T21:51:04.437Z,-1.40
2017-12-28T21:53:31.910Z,-1.40
2017-12-28T21:55:59.374Z,-1.50
2017-12-28T21:58:26.831Z,-1.40
2017-12-28T22:00:54.294Z,-1.40
2017-12-28T22:03:21.755Z,-1.40
2017-12-28T22:05:49.222Z,-1.40
2017-12-28T22:08:16.678Z,-1.40
2017-12-28T22:10:44.131Z,-1.50
2017-12-28T22:13:11.603Z,-1.40
2017-12-28T22:15:39.061Z,-1.40
2017-12-28T22:18:06.511Z,-1.30
2017-12-28T22:20:34.744Z,-1.20
2017-12-28T22:23:02.202Z,-1.20
2017-12-28T22:25:30.427Z,-1.20
2017-12-28T22:27:57.899Z,-1.20
2017-12-28T22:30:25.367Z,-1.10
2017-12-28T22:32:53.583Z,-1.10
2017-12-28T22:35:21.038Z,-1.10
2017-12-28T22:37:49.286Z,-1.10
2017-12-28T22:40:16.771Z,-1.10
2017-12-28T22:42:44.986Z,-0.90
2017-12-28T22:45:12.450Z,-0.90
2017-12-28T22:47:39.899Z,-0.80
2017-12-28T22:50:08.126Z,-0.70
2017-12-28T22:52:35.591Z,-0.70
2017-12-28T22:55:03.050Z,-0.70
2017-12-28T22:57:31.270Z,-0.50
2017-12-28T22:59:58.723Z,-0.60
2017-12-28T23:02:26.175Z,-0.50
2017-12-28T23:04:53.635Z,-0.50
2017-12-28T23:07:21.874Z,-0.40
2017-12-28T23:09:49.336Z,-0.40
2017-12-28T23:12:17.571Z,-0.30
2017-12-28T23:14:45.032Z,-0.30
2017-12-28T23:17:12.572Z,-0.30
2017-12-28T23:19:40.028Z,-0.30
2017-12-28T23:22:08.254Z,-0.20
2017-12-28T23:24:35.731Z,-0.30
2017-12-28T23:27:03.958Z,-0.20
2017-12-28T23:29:32.074Z,-0.20
2017-12-28T23:31:59.534Z,-0.10
2017-12-28T23:34:26.991Z,-0.10
2017-12-28T23:36:54.453Z,-0.10
2017-12-28T23:39:21.915Z,-0.20
2017-12-28T23:41:49.373Z,-0.10
2017-12-28T23:44:16.852Z,-0.20
2017-12-28T23:46:44.335Z,-0.20
2017-12-28T23:49:11.790Z,-0.20
2017-12-28T23:51:40.031Z,-0.20
2017-12-28T23:54:07.482Z,-0.20
2017-12-28T23:56:35.701Z,-0.10
2017-12-28T23:59:03.103Z,-0.10
